UHHH/KHV METAR and TAF weather

Enter ICAO airport designator
Station Type Date Time Source
UHHH METAR 2020/09/25 19:00 UTC NOAA

UHHH 251900Z 06002MPS CAVOK 11/09 Q1023 R23L/090060 NOSIG RMK QFE761/1015


Station Type Date Time Source
UHHH Decoded METAR 2020/09/25 19:00 UTC NOAA

Habarovsk, Russia (UHHH) 48-31N 135-10E 76M
Sep 25, 2020 - 03:00 PM EDT / 2020.09.25 1900 UTC
Wind: from the ENE (060 degrees) at 4 MPH (4 KT):0
Visibility: greater than 7 mile(s):0
Temperature: 51 F (11 C)
Dew Point: 48 F (9 C)
Relative Humidity: 87%
Pressure (altimeter): 30.21 in. Hg (1023 hPa)
ob: UHHH 251900Z 06002MPS CAVOK 11/09 Q1023 R23L/090060 NOSIG RMK QFE761/1015
cycle: 19

Station Type Date Time Source
UHHH TAF 2020/09/25 18:21 UTC NOAA

TAF UHHH 251646Z 2518/2624 07003MPS 9999 NSC
TEMPO 2518/2524 3100 BR SCT011 SCT020CB
TEMPO 2600/2609 09008MPS SCT020CB

Example: see airport list